Time;durP1;ratioP1;P1;durP2;ratioP2;P2;SDS_P1;SDS_P2;PMS_P1;PMS_P2;Temp;Humidity;BMP_temperature;BMP_pressure;BME280_temperature;BME280_humidity;BME280_pressure;Samples;Min_cycle;Max_cycle;Signal;HPM_P1;HPM_P2
2022/01/01 00:00:16;;;;;;;4.40;1.90;;;;;;;5.44;71.91;99513.44;1783344;79;21098;-59
2022/01/01 00:02:43;;;;;;;5.55;2.67;;;;;;;5.47;71.94;99511.92;1779974;79;21569;-59
2022/01/01 00:05:12;;;;;;;6.28;2.60;;;;;;;5.45;72.05;99509.08;1753215;79;21047;-58
2022/01/01 00:07:39;;;;;;;6.67;3.20;;;;;;;5.44;72.27;99512.63;1779294;79;21053;-59
2022/01/01 00:10:07;;;;;;;6.78;2.37;;;;;;;5.42;72.25;99507.99;1777985;79;21070;-59
2022/01/01 00:12:34;;;;;;;5.53;2.65;;;;;;;5.39;72.32;99507.25;1762218;79;21046;-59
2022/01/01 00:15:01;;;;;;;5.95;2.45;;;;;;;5.36;72.43;99510.10;1776003;79;21644;-59
2022/01/01 00:17:28;;;;;;;5.15;2.42;;;;;;;5.37;72.44;99501.31;1780822;79;21144;-59
2022/01/01 00:19:54;;;;;;;6.70;2.83;;;;;;;5.45;72.31;99493.42;1781578;79;21089;-59
2022/01/01 00:22:21;;;;;;;4.97;2.08;;;;;;;5.50;72.40;99497.83;1772446;79;21046;-59
2022/01/01 00:24:47;;;;;;;6.70;2.70;;;;;;;5.51;72.60;99500.78;1778671;79;21715;-59
2022/01/01 00:27:13;;;;;;;6.62;2.87;;;;;;;5.48;72.88;99491.88;1749646;79;21428;-59
2022/01/01 00:29:41;;;;;;;6.65;2.65;;;;;;;5.45;73.09;99485.59;1782828;79;22348;-59
2022/01/01 00:32:07;;;;;;;5.58;2.75;;;;;;;5.42;73.25;99481.90;1777898;79;21022;-59
2022/01/01 00:34:35;;;;;;;6.37;3.05;;;;;;;5.36;73.24;99472.72;1745163;79;21105;-59
2022/01/01 00:37:02;;;;;;;7.92;2.65;;;;;;;5.33;73.37;99473.80;1756672;79;21025;-59
2022/01/01 00:39:28;;;;;;;6.67;2.70;;;;;;;5.37;73.32;99470.01;1764766;79;21576;-59
2022/01/01 00:41:55;;;;;;;6.00;2.37;;;;;;;5.49;73.09;99462.23;1763246;79;21870;-59
2022/01/01 00:44:24;;;;;;;6.40;2.72;;;;;;;5.58;72.93;99464.15;1739440;79;21041;-59
2022/01/01 00:46:50;;;;;;;5.12;2.20;;;;;;;5.57;72.94;99452.06;1763782;79;21034;-59
2022/01/01 00:49:17;;;;;;;5.90;2.92;;;;;;;5.56;73.18;99454.30;1756928;79;21134;-59
2022/01/01 00:51:43;;;;;;;6.05;2.20;;;;;;;5.53;73.35;99448.00;1742517;80;21785;-59
2022/01/01 00:54:10;;;;;;;5.85;2.08;;;;;;;5.55;73.45;99444.83;1761580;79;21210;-59
2022/01/01 00:56:38;;;;;;;5.35;2.58;;;;;;;5.52;73.48;99443.27;1740842;80;21067;-59
2022/01/01 00:59:04;;;;;;;5.42;2.27;;;;;;;5.52;73.52;99435.92;1760055;79;21121;-59
2022/01/01 01:01:30;;;;;;;5.95;2.10;;;;;;;5.63;73.42;99436.41;1758953;81;21038;-59
2022/01/01 01:03:57;;;;;;;3.92;1.70;;;;;;;5.68;73.40;99432.98;1756024;81;21049;-59
2022/01/01 01:06:24;;;;;;;4.95;2.20;;;;;;;5.68;73.52;99423.40;1759533;80;21666;-59
2022/01/01 01:08:54;;;;;;;6.30;2.17;;;;;;;5.67;73.68;99419.59;1754490;80;21064;-59
2022/01/01 01:11:20;;;;;;;4.65;2.02;;;;;;;5.65;73.92;99417.55;1727360;80;21052;-59
2022/01/01 01:13:55;;;;;;;6.35;2.47;;;;;;;5.61;74.17;99417.44;1778035;78;21785;-60
2022/01/01 01:16:15;;;;;;;5.37;2.33;;;;;;;5.57;74.30;99420.27;1746780;80;21041;-59
2022/01/01 01:18:42;;;;;;;4.67;2.15;;;;;;;5.61;74.26;99410.91;1782964;80;21133;-59
2022/01/01 01:21:10;;;;;;;4.92;2.08;;;;;;;5.69;74.14;99415.91;1782147;80;21041;-59
2022/01/01 01:23:36;;;;;;;5.65;2.02;;;;;;;5.78;74.16;99413.06;1758130;80;21081;-59
2022/01/01 01:26:03;;;;;;;5.37;2.50;;;;;;;5.83;74.21;99404.89;1753976;80;21042;-59
2022/01/01 01:28:30;;;;;;;5.42;2.10;;;;;;;5.82;74.45;99403.25;1777931;80;21057;-59
2022/01/01 01:30:56;;;;;;;8.43;2.62;;;;;;;5.80;74.90;99407.73;1781140;78;21712;-59
2022/01/01 01:33:23;;;;;;;5.95;2.67;;;;;;;5.77;75.14;99399.68;1752266;80;21057;-59
2022/01/01 01:35:49;;;;;;;5.83;2.60;;;;;;;5.76;75.32;99391.00;1758364;80;21526;-59
2022/01/01 01:38:16;;;;;;;4.55;2.02;;;;;;;5.82;75.35;99398.03;1760822;80;21062;-61
2022/01/01 01:40:42;;;;;;;4.37;1.80;;;;;;;5.92;75.49;99393.77;1754643;80;21494;-60
2022/01/01 01:43:11;;;;;;;4.50;1.95;;;;;;;6.01;75.54;99390.95;1759893;80;21147;-60
2022/01/01 01:45:37;;;;;;;5.62;2.17;;;;;;;6.04;75.63;99389.41;1786654;79;21031;-60
2022/01/01 01:48:04;;;;;;;4.37;1.77;;;;;;;6.03;76.11;99390.35;1752676;80;21094;-60
2022/01/01 01:50:33;;;;;;;3.70;1.52;;;;;;;6.00;76.36;99385.36;1726922;80;22431;-60
2022/01/01 01:53:00;;;;;;;5.00;2.50;;;;;;;5.99;76.60;99383.23;1743858;80;21563;-60
2022/01/01 01:55:29;;;;;;;4.90;2.30;;;;;;;6.04;76.48;99379.80;1756338;80;21431;-60
2022/01/01 01:57:55;;;;;;;5.45;2.15;;;;;;;6.11;76.69;99372.31;1784210;79;21558;-60
2022/01/01 02:00:48;;;;;;;4.20;1.75;;;;;;;6.18;76.62;99372.19;1754469;80;21045;-61
2022/01/01 02:02:50;;;;;;;5.47;1.67;;;;;;;6.22;76.69;99363.63;1773808;80;21050;-60
2022/01/01 02:05:16;;;;;;;4.45;1.80;;;;;;;6.21;76.82;99355.45;1756268;80;21014;-60
2022/01/01 02:07:43;;;;;;;3.52;1.30;;;;;;;6.23;76.94;99352.23;1760272;80;21169;-60
2022/01/01 02:10:10;;;;;;;4.15;1.70;;;;;;;6.21;76.94;99351.05;1760695;79;21578;-60
2022/01/01 02:12:39;;;;;;;5.25;2.08;;;;;;;6.24;76.96;99351.30;1779347;78;21062;-60
2022/01/01 02:15:25;;;;;;;3.92;1.35;;;;;;;6.34;76.77;99357.46;1751952;80;21057;-59
2022/01/01 02:17:39;;;;;;;5.45;1.80;;;;;;;6.42;76.65;99356.38;1752160;80;21384;-60
2022/01/01 02:20:14;;;;;;;4.92;1.95;;;;;;;6.46;76.75;99357.79;1759787;80;21137;-60
2022/01/01 02:22:50;;;;;;;3.85;1.60;;;;;;;6.42;76.93;99354.22;1790745;79;21038;-60
2022/01/01 02:25:19;;;;;;;5.37;1.98;;;;;;;6.40;77.15;99346.50;1759050;80;21031;-59
2022/01/01 02:27:47;;;;;;;4.53;1.80;;;;;;;6.39;77.24;99340.94;1780515;79;21549;-59
2022/01/01 02:30:14;;;;;;;4.50;1.95;;;;;;;6.44;77.41;99344.02;1748042;80;21054;-59
2022/01/01 02:32:41;;;;;;;4.12;1.65;;;;;;;6.55;77.35;99348.38;1761793;80;21241;-59
2022/01/01 02:35:10;;;;;;;5.28;2.00;;;;;;;6.63;77.51;99350.39;1754943;80;21054;-59
2022/01/01 02:37:37;;;;;;;4.78;2.15;;;;;;;6.65;77.53;99346.69;1782555;80;21434;-59
2022/01/01 02:40:06;;;;;;;4.65;1.82;;;;;;;6.63;77.86;99355.62;1780669;78;21053;-59
2022/01/01 02:42:32;;;;;;;6.50;2.10;;;;;;;6.60;78.27;99346.71;1753525;80;21078;-60
2022/01/01 02:45:05;;;;;;;5.67;2.25;;;;;;;6.63;78.33;99342.55;1778122;79;21154;-59
2022/01/01 02:47:28;;;;;;;4.72;1.98;;;;;;;6.73;78.17;99335.63;1775216;80;21108;-59
2022/01/01 02:49:54;;;;;;;5.08;2.30;;;;;;;6.79;78.04;99335.59;1752916;79;21030;-59
2022/01/01 02:52:21;;;;;;;6.00;2.60;;;;;;;6.84;77.93;99343.44;1774628;79;21807;-59
2022/01/01 02:54:47;;;;;;;6.12;2.50;;;;;;;6.81;78.08;99342.38;1751409;79;21077;-60
2022/01/01 02:57:13;;;;;;;5.60;2.58;;;;;;;6.78;78.16;99336.08;1778214;79;22051;-59
2022/01/01 02:59:40;;;;;;;5.97;2.75;;;;;;;6.83;78.20;99338.33;1752603;80;21495;-59
2022/01/01 03:02:06;;;;;;;5.17;2.42;;;;;;;6.91;78.30;99341.61;1767704;79;21094;-62
2022/01/01 03:04:33;;;;;;;5.45;2.00;;;;;;;6.99;78.22;99335.28;1776895;80;21062;-60
2022/01/01 03:07:00;;;;;;;6.97;3.08;;;;;;;7.04;78.10;99335.73;1776509;78;21103;-59
2022/01/01 03:09:34;;;;;;;7.92;3.10;;;;;;;7.03;78.25;99332.78;1798514;77;21046;-60
2022/01/01 03:11:55;;;;;;;5.90;2.75;;;;;;;7.00;78.60;99335.16;1781546;78;21086;-60
2022/01/01 03:14:21;;;;;;;5.72;2.55;;;;;;;7.05;78.58;99326.45;1800062;77;21051;-60
2022/01/01 03:16:49;;;;;;;7.50;3.75;;;;;;;7.13;78.44;99322.37;1783831;79;21534;-60
2022/01/01 03:19:15;;;;;;;5.35;2.58;;;;;;;7.18;78.38;99330.70;1782111;78;21095;-60
2022/01/01 03:21:42;;;;;;;5.53;2.80;;;;;;;7.15;78.92;99327.02;1806176;77;21143;-60
2022/01/01 03:24:08;;;;;;;7.05;3.20;;;;;;;7.12;78.97;99330.70;1794300;78;21063;-60
2022/01/01 03:26:35;;;;;;;7.33;3.65;;;;;;;7.16;79.03;99331.28;1801715;78;21081;-60
2022/01/01 03:29:01;;;;;;;8.45;3.85;;;;;;;7.25;78.89;99334.45;1798007;78;21140;-60
2022/01/01 03:31:28;;;;;;;5.95;3.50;;;;;;;7.31;78.78;99321.33;1765082;80;21063;-60
2022/01/01 03:33:54;;;;;;;7.85;4.08;;;;;;;7.34;78.74;99330.23;1778168;79;21138;-60
2022/01/01 03:36:20;;;;;;;8.30;4.80;;;;;;;7.31;78.92;99320.02;1766568;79;21018;-60
2022/01/01 03:38:47;;;;;;;7.67;4.25;;;;;;;7.32;79.05;99321.20;1776565;78;21689;-60
2022/01/01 03:41:13;;;;;;;8.88;4.50;;;;;;;7.36;79.16;99328.31;1784294;77;20990;-61
2022/01/01 03:43:40;;;;;;;8.05;4.17;;;;;;;7.43;79.09;99328.14;1804582;78;21014;-60
2022/01/01 03:46:06;;;;;;;9.20;4.33;;;;;;;7.50;79.30;99328.00;1805166;77;21590;-60
2022/01/01 03:48:34;;;;;;;8.00;4.12;;;;;;;7.51;79.32;99323.09;1804470;77;21508;-60
2022/01/01 03:51:00;;;;;;;7.83;4.35;;;;;;;7.51;79.66;99327.52;1802205;77;21029;-60
2022/01/01 03:54:49;;;;;;;8.83;4.85;;;;;;;7.54;79.70;99327.27;1797635;79;23411;-59
2022/01/01 03:57:15;;;;;;;9.75;4.53;;;;;;;7.54;79.41;99328.08;1778209;79;21019;-59
2022/01/01 03:59:42;;;;;;;8.60;4.42;;;;;;;7.62;79.22;99323.52;1769254;79;21495;-59
2022/01/01 04:02:08;;;;;;;7.95;4.12;;;;;;;7.67;79.13;99324.45;1731878;80;21536;-60
2022/01/01 04:04:35;;;;;;;9.83;4.80;;;;;;;7.67;79.12;99327.06;1746169;81;21065;-60
2022/01/01 04:07:02;;;;;;;9.48;5.08;;;;;;;7.66;79.13;99336.69;1710329;83;21047;-59
2022/01/01 04:09:29;;;;;;;9.40;4.70;;;;;;;7.67;79.14;99337.05;1711777;82;22514;-60
2022/01/01 04:11:56;;;;;;;10.28;4.65;;;;;;;7.79;78.88;99345.16;1729424;80;21149;-60
2022/01/01 04:14:22;;;;;;;9.43;4.40;;;;;;;7.87;78.72;99347.59;1724206;81;21578;-61
2022/01/01 04:16:52;;;;;;;10.98;5.35;;;;;;;7.93;78.71;99351.02;1709267;81;20991;-61
2022/01/01 04:19:23;;;;;;;9.38;4.78;;;;;;;7.91;78.71;99351.63;1713867;83;21076;-61
2022/01/01 04:21:49;;;;;;;10.00;5.17;;;;;;;7.91;78.73;99355.56;1712905;81;21540;-61
2022/01/01 04:24:15;;;;;;;8.68;5.30;;;;;;;7.93;78.63;99357.08;1707937;83;21436;-60
2022/01/01 04:26:42;;;;;;;11.40;5.85;;;;;;;8.02;78.46;99363.80;1702720;83;21082;-61
2022/01/01 04:29:08;;;;;;;8.60;4.75;;;;;;;8.08;78.33;99359.35;1735314;80;21047;-61
2022/01/01 04:31:36;;;;;;;10.20;5.80;;;;;;;8.11;78.28;99357.78;1709049;80;21567;-61
2022/01/01 04:34:02;;;;;;;10.28;5.75;;;;;;;8.08;78.83;99363.28;1731381;81;22224;-61
2022/01/01 04:36:30;;;;;;;11.63;5.90;;;;;;;8.05;78.77;99368.29;1728383;80;21158;-61
2022/01/01 04:38:57;;;;;;;11.40;5.78;;;;;;;8.09;78.74;99371.50;1685590;82;21011;-61
2022/01/01 04:41:24;;;;;;;9.58;5.40;;;;;;;8.17;78.47;99365.12;1724590;82;21520;-60
2022/01/01 04:43:50;;;;;;;12.68;5.58;;;;;;;8.21;78.47;99363.06;1712952;82;21052;-61
2022/01/01 04:46:17;;;;;;;9.35;4.92;;;;;;;8.23;78.56;99364.58;1691299;82;21707;-61
2022/01/01 04:48:43;;;;;;;8.30;4.90;;;;;;;8.20;78.78;99371.39;1723798;82;21089;-60
2022/01/01 04:51:10;;;;;;;10.90;5.95;;;;;;;8.18;78.94;99364.14;1720582;81;22230;-60
2022/01/01 04:53:39;;;;;;;17.37;10.45;;;;;;;8.23;78.90;99372.93;1694055;81;21020;-60
2022/01/01 04:56:07;;;;;;;30.88;15.32;;;;;;;8.31;78.78;99371.30;1737159;80;21622;-60
2022/01/01 04:58:34;;;;;;;23.60;11.85;;;;;;;8.38;78.68;99361.92;1754237;79;21039;-60
2022/01/01 05:01:01;;;;;;;18.67;9.83;;;;;;;8.42;78.69;99369.53;1763286;80;21135;-60
2022/01/01 05:03:27;;;;;;;10.08;6.60;;;;;;;8.43;78.60;99369.92;1757120;80;20964;-60
2022/01/01 05:05:53;;;;;;;9.65;5.67;;;;;;;8.40;78.45;99373.59;1762624;80;21752;-60
2022/01/01 05:08:20;;;;;;;11.83;6.90;;;;;;;8.43;78.18;99380.41;1747886;80;21087;-61
2022/01/01 05:10:47;;;;;;;9.88;5.50;;;;;;;8.49;77.90;99374.61;1748295;80;21090;-60
2022/01/01 05:13:14;;;;;;;12.53;6.65;;;;;;;8.55;77.62;99374.08;1758680;79;22079;-60
2022/01/01 05:15:40;;;;;;;13.30;7.20;;;;;;;8.57;77.47;99383.95;1751560;80;21035;-60
2022/01/01 05:18:07;;;;;;;9.23;5.53;;;;;;;8.55;77.46;99387.19;1745296;80;21023;-60
2022/01/01 05:20:34;;;;;;;8.70;5.15;;;;;;;8.49;77.46;99382.02;1751177;80;21493;-60
2022/01/01 05:23:01;;;;;;;7.85;4.50;;;;;;;8.56;77.61;99394.11;1730195;81;21047;-60
2022/01/01 05:25:28;;;;;;;9.10;4.60;;;;;;;8.69;77.33;99398.63;1761959;80;21148;-60
2022/01/01 05:27:56;;;;;;;9.18;4.80;;;;;;;8.79;77.08;99405.17;1757871;80;21658;-60
2022/01/01 05:30:22;;;;;;;7.60;4.35;;;;;;;8.81;76.72;99405.89;1730428;81;21070;-61
2022/01/01 05:32:49;;;;;;;8.50;4.42;;;;;;;8.77;76.66;99410.23;1758163;80;21128;-61
2022/01/01 05:35:15;;;;;;;7.20;4.00;;;;;;;8.69;76.64;99410.89;1755650;80;21000;-60
2022/01/01 05:37:43;;;;;;;10.82;4.08;;;;;;;8.66;76.53;99415.94;1751107;80;21130;-60
2022/01/01 05:40:11;;;;;;;9.18;4.30;;;;;;;8.68;76.47;99412.69;1748681;79;21603;-61
2022/01/01 05:42:39;;;;;;;7.20;4.00;;;;;;;8.69;76.58;99416.13;1755837;80;21095;-60
2022/01/01 05:45:07;;;;;;;7.83;3.90;;;;;;;8.69;76.60;99417.44;1752474;80;21014;-59
2022/01/01 05:47:34;;;;;;;8.13;3.87;;;;;;;8.65;76.76;99430.49;1733878;80;21102;-60
2022/01/01 05:50:00;;;;;;;8.23;3.20;;;;;;;8.61;76.66;99418.13;1733869;80;21889;-60
2022/01/01 05:52:26;;;;;;;6.70;3.17;;;;;;;8.60;76.61;99419.58;1756383;80;21051;-60
2022/01/01 05:54:53;;;;;;;6.58;3.35;;;;;;;8.69;76.37;99433.18;1753143;80;21083;-60
2022/01/01 05:57:19;;;;;;;6.85;3.55;;;;;;;8.73;76.02;99429.34;1751666;80;21138;-59
2022/01/01 05:59:46;;;;;;;7.67;3.40;;;;;;;8.71;75.94;99437.84;1750090;80;21048;-60
2022/01/01 06:02:12;;;;;;;7.20;3.72;;;;;;;8.69;76.25;99435.34;1740885;80;21159;-60
2022/01/01 06:04:39;;;;;;;5.92;2.65;;;;;;;8.70;75.95;99444.84;1757557;80;21039;-60
2022/01/01 06:07:07;;;;;;;7.95;2.72;;;;;;;8.76;75.80;99458.39;1754502;80;21509;-59
2022/01/01 06:09:35;;;;;;;5.80;3.05;;;;;;;8.86;75.31;99460.55;1752779;80;21112;-60
2022/01/01 06:12:02;;;;;;;6.12;2.83;;;;;;;8.89;74.98;99462.45;1756337;80;21092;-60
2022/01/01 06:14:29;;;;;;;5.12;2.58;;;;;;;8.85;74.77;99472.85;1748036;80;21952;-60
2022/01/01 06:16:55;;;;;;;5.58;2.58;;;;;;;8.76;74.55;99469.73;1763961;80;21030;-60
2022/01/01 06:19:22;;;;;;;5.53;2.55;;;;;;;8.72;74.83;99475.73;1754486;80;21023;-60
2022/01/01 06:21:49;;;;;;;5.08;2.02;;;;;;;8.80;74.66;99476.85;1757709;80;21025;-60
2022/01/01 06:24:15;;;;;;;5.10;1.80;;;;;;;8.85;74.28;99478.59;1759265;80;21055;-59
2022/01/01 06:26:42;;;;;;;5.70;2.58;;;;;;;8.82;74.05;99483.61;1733171;80;22383;-60
2022/01/01 06:29:09;;;;;;;5.62;2.10;;;;;;;8.82;73.95;99486.72;1755834;80;21063;-59
2022/01/01 06:31:35;;;;;;;4.37;1.77;;;;;;;8.78;73.91;99497.97;1749481;80;21063;-60
2022/01/01 06:34:02;;;;;;;4.83;1.90;;;;;;;8.87;73.65;99504.20;1752695;80;21109;-59
2022/01/01 06:36:29;;;;;;;4.35;1.92;;;;;;;8.94;73.25;99501.38;1747813;80;21107;-60
2022/01/01 06:38:55;;;;;;;4.90;1.85;;;;;;;8.96;72.95;99522.24;1758230;80;21489;-59
2022/01/01 06:41:24;;;;;;;6.47;2.00;;;;;;;8.91;72.72;99523.98;1767558;80;22224;-59
2022/01/01 06:43:50;;;;;;;3.87;1.27;;;;;;;8.79;72.49;99532.39;1744517;80;21559;-60
2022/01/01 06:46:17;;;;;;;5.37;1.82;;;;;;;8.77;72.46;99538.27;1759532;80;21063;-60
2022/01/01 06:48:43;;;;;;;4.35;1.50;;;;;;;8.73;72.40;99536.39;1749616;80;21072;-59
2022/01/01 06:51:10;;;;;;;4.65;1.77;;;;;;;8.69;72.63;99541.56;1755805;80;21067;-59
2022/01/01 06:53:36;;;;;;;3.55;1.20;;;;;;;8.63;72.49;99556.99;1753662;80;21706;-59
2022/01/01 06:56:05;;;;;;;3.02;1.20;;;;;;;8.60;72.38;99562.00;1751436;80;21070;-60
2022/01/01 06:58:34;;;;;;;3.50;1.40;;;;;;;8.64;72.14;99564.73;1755295;80;21047;-60
2022/01/01 07:01:00;;;;;;;4.50;1.57;;;;;;;8.59;72.27;99566.91;1750980;80;21050;-59
2022/01/01 07:03:27;;;;;;;3.30;1.12;;;;;;;8.54;72.27;99573.03;1731411;81;21244;-59
2022/01/01 07:05:54;;;;;;;3.20;1.07;;;;;;;8.53;72.21;99572.66;1753180;80;21048;-59
2022/01/01 07:08:21;;;;;;;4.22;1.22;;;;;;;8.58;72.06;99574.91;1749186;80;21074;-59
2022/01/01 07:10:49;;;;;;;2.92;1.05;;;;;;;8.56;72.03;99581.59;1747786;80;21580;-59
2022/01/01 07:13:16;;;;;;;3.67;1.30;;;;;;;8.51;72.09;99581.15;1745458;80;21643;-59
2022/01/01 07:15:43;;;;;;;3.55;1.10;;;;;;;8.48;72.20;99589.27;1755006;80;21100;-60
2022/01/01 07:18:11;;;;;;;3.25;1.02;;;;;;;8.54;72.22;99595.31;1746736;80;21035;-60
2022/01/01 07:20:38;;;;;;;3.02;1.05;;;;;;;8.59;72.00;99598.84;1751637;79;21129;-60
2022/01/01 07:23:04;;;;;;;3.37;1.32;;;;;;;8.59;72.06;99601.46;1759378;80;20984;-60
2022/01/01 07:25:31;;;;;;;4.40;1.17;;;;;;;8.55;72.19;99604.83;1739941;80;21564;-61
2022/01/01 07:27:58;;;;;;;3.30;1.07;;;;;;;8.56;72.13;99603.88;1745574;80;21092;-60
2022/01/01 07:30:24;;;;;;;4.50;1.57;;;;;;;8.64;71.98;99609.31;1728942;80;21105;-60
2022/01/01 07:32:51;;;;;;;3.55;1.32;;;;;;;8.69;71.85;99615.45;1755032;80;21016;-60
2022/01/01 07:35:18;;;;;;;4.08;1.60;;;;;;;8.67;71.80;99613.45;1746082;80;21054;-61
2022/01/01 07:37:45;;;;;;;4.03;1.55;;;;;;;8.63;71.89;99623.38;1748614;80;21000;-60
2022/01/01 07:40:14;;;;;;;3.02;1.10;;;;;;;8.65;71.79;99618.83;1755593;80;21207;-60
2022/01/01 07:42:41;;;;;;;3.37;1.07;;;;;;;8.72;71.46;99621.77;1754322;80;21025;-60
2022/01/01 07:45:08;;;;;;;2.95;1.10;;;;;;;8.72;71.23;99614.74;1749892;80;21061;-60
2022/01/01 07:47:35;;;;;;;5.35;1.82;;;;;;;8.70;71.18;99626.31;1754769;80;21044;-60
2022/01/01 07:50:04;;;;;;;3.60;1.27;;;;;;;8.62;71.28;99624.33;1748929;80;21100;-60
2022/01/01 07:52:30;;;;;;;3.67;1.07;;;;;;;8.60;71.43;99630.67;1755164;80;21100;-60
2022/01/01 07:54:57;;;;;;;2.12;0.75;;;;;;;8.62;71.36;99637.44;1751720;80;22031;-61
2022/01/01 07:57:25;;;;;;;4.33;1.40;;;;;;;8.62;71.36;99638.74;1758152;80;21130;-60
2022/01/01 07:59:51;;;;;;;3.62;1.30;;;;;;;8.58;71.23;99633.42;1754213;80;21082;-60
2022/01/01 08:02:17;;;;;;;3.33;0.90;;;;;;;8.52;71.32;99641.78;1750226;80;21011;-60
2022/01/01 08:04:45;;;;;;;3.22;0.98;;;;;;;8.53;71.06;99635.11;1754452;80;21055;-60
2022/01/01 08:07:11;;;;;;;3.05;0.95;;;;;;;8.55;70.97;99641.53;1758267;80;21110;-60
2022/01/01 08:09:39;;;;;;;4.03;1.02;;;;;;;8.52;71.12;99645.72;1754309;80;21578;-60
2022/01/01 08:12:07;;;;;;;3.67;1.15;;;;;;;8.47;71.17;99646.59;1750730;80;21068;-60
2022/01/01 08:14:34;;;;;;;2.50;0.55;;;;;;;8.44;71.30;99645.06;1746688;80;21434;-60
2022/01/01 08:17:06;;;;;;;3.85;1.37;;;;;;;8.47;71.21;99649.20;1760422;79;21083;-60
2022/01/01 08:19:34;;;;;;;2.77;0.72;;;;;;;8.56;71.09;99649.77;1744514;80;21087;-60
2022/01/01 08:22:04;;;;;;;2.30;0.70;;;;;;;8.61;71.05;99652.84;1749645;80;21564;-60
2022/01/01 08:24:31;;;;;;;3.25;0.82;;;;;;;8.60;71.05;99654.27;1746258;80;21072;-60
2022/01/01 08:26:58;;;;;;;2.17;0.70;;;;;;;8.57;71.13;99655.34;1762321;80;21071;-59
2022/01/01 08:29:24;;;;;;;2.00;0.55;;;;;;;8.55;71.08;99661.20;1752707;80;21080;-60
2022/01/01 08:31:52;;;;;;;2.12;0.57;;;;;;;8.58;71.06;99664.89;1748158;80;21058;-59
2022/01/01 08:34:19;;;;;;;1.75;0.60;;;;;;;8.53;71.26;99657.39;1753252;80;21665;-60
2022/01/01 08:36:46;;;;;;;2.70;0.72;;;;;;;8.51;71.61;99662.43;1756459;80;21121;-60
2022/01/01 08:39:14;;;;;;;1.90;0.50;;;;;;;8.48;71.31;99656.95;1750820;80;21002;-60
2022/01/01 08:41:42;;;;;;;3.08;0.68;;;;;;;8.46;70.82;99663.30;1745019;80;21087;-60
2022/01/01 08:44:08;;;;;;;2.00;0.50;;;;;;;8.45;70.62;99668.17;1758304;80;21043;-60
2022/01/01 08:46:35;;;;;;;2.80;0.80;;;;;;;8.49;70.17;99661.70;1753570;80;21077;-60
2022/01/01 08:49:03;;;;;;;1.98;0.60;;;;;;;8.55;70.10;99673.00;1753624;80;21133;-62
2022/01/01 08:51:30;;;;;;;3.62;0.60;;;;;;;8.53;70.28;99669.20;1732180;80;21091;-60
2022/01/01 08:53:57;;;;;;;1.10;0.47;;;;;;;8.57;70.37;99679.44;1758252;80;21149;-61
2022/01/01 08:56:24;;;;;;;4.53;1.02;;;;;;;8.54;70.15;99669.56;1741357;80;21042;-60
2022/01/01 08:58:50;;;;;;;4.15;1.57;;;;;;;8.54;70.22;99666.11;1755063;79;21979;-60
2022/01/01 09:01:16;;;;;;;4.47;1.32;;;;;;;8.62;70.21;99676.77;1767879;80;21048;-61
2022/01/01 09:03:44;;;;;;;3.87;1.40;;;;;;;8.67;70.09;99673.28;1753726;80;21197;-60
2022/01/01 09:06:10;;;;;;;3.77;1.20;;;;;;;8.66;69.94;99682.13;1752019;80;21658;-60
2022/01/01 09:08:40;;;;;;;4.17;1.30;;;;;;;8.63;69.96;99682.87;1727851;80;21042;-60
2022/01/01 09:11:11;;;;;;;3.60;1.32;;;;;;;8.57;70.13;99681.56;1759496;80;21054;-61
2022/01/01 09:13:41;;;;;;;4.67;1.25;;;;;;;8.58;70.30;99684.55;1729423;80;21098;-60
2022/01/01 09:16:08;;;;;;;3.00;0.95;;;;;;;8.65;70.07;99678.32;1752084;80;21003;-61
2022/01/01 09:18:36;;;;;;;2.83;0.90;;;;;;;8.68;69.89;99678.07;1752459;80;21134;-61
2022/01/01 09:21:02;;;;;;;4.05;1.15;;;;;;;8.68;69.98;99687.25;1752946;79;21056;-61
2022/01/01 09:23:30;;;;;;;3.17;1.15;;;;;;;8.66;70.05;99678.20;1749897;80;21079;-61
2022/01/01 09:25:57;;;;;;;3.85;0.90;;;;;;;8.62;70.05;99686.44;1751392;80;21086;-60
2022/01/01 09:28:23;;;;;;;3.77;1.00;;;;;;;8.59;70.08;99698.03;1753645;80;21036;-60
2022/01/01 09:30:49;;;;;;;3.00;0.75;;;;;;;8.59;70.35;99698.03;1752855;80;21070;-60
2022/01/01 09:33:16;;;;;;;3.45;1.00;;;;;;;8.52;70.45;99699.02;1760087;79;21492;-60
2022/01/01 09:35:42;;;;;;;3.10;0.95;;;;;;;8.43;70.68;99697.63;1750893;80;21105;-61
2022/01/01 09:38:09;;;;;;;1.60;0.50;;;;;;;8.35;70.83;99697.75;1749016;80;21517;-61
2022/01/01 09:40:35;;;;;;;2.75;0.60;;;;;;;8.31;71.02;99696.31;1752280;80;20992;-60
2022/01/01 09:43:02;;;;;;;1.85;0.60;;;;;;;8.34;70.95;99696.07;1760488;80;21254;-60
2022/01/01 09:45:30;;;;;;;3.58;0.53;;;;;;;8.42;70.37;99697.23;1760309;80;21562;-61
2022/01/01 09:47:56;;;;;;;1.45;0.35;;;;;;;8.44;69.62;99697.95;1753501;80;21079;-60
2022/01/01 09:50:22;;;;;;;1.77;0.62;;;;;;;8.40;69.31;99693.91;1759464;80;21582;-61
2022/01/01 09:52:49;;;;;;;2.25;0.60;;;;;;;8.35;68.91;99700.38;1752413;80;21827;-60
2022/01/01 09:55:16;;;;;;;1.85;0.68;;;;;;;8.32;68.87;99710.25;1757966;80;21132;-60
2022/01/01 09:57:43;;;;;;;2.55;0.45;;;;;;;8.32;68.99;99701.07;1696936;82;21059;-62
2022/01/01 10:00:12;;;;;;;2.08;0.60;;;;;;;8.42;68.92;99702.47;1756752;80;21051;-60
2022/01/01 10:02:38;;;;;;;1.77;0.50;;;;;;;8.45;68.87;99699.14;1754061;80;21404;-61
2022/01/01 10:05:06;;;;;;;3.20;0.70;;;;;;;8.45;68.68;99700.45;1758712;80;21047;-61
2022/01/01 10:07:33;;;;;;;4.45;1.22;;;;;;;8.45;68.78;99704.88;1748562;80;21149;-61
2022/01/01 10:10:25;;;;;;;2.70;0.85;;;;;;;8.42;68.94;99711.64;1759694;79;21039;-61
2022/01/01 10:12:54;;;;;;;4.80;1.30;;;;;;;8.36;69.26;99709.88;1743336;80;21070;-59
2022/01/01 10:15:20;;;;;;;4.90;0.98;;;;;;;8.45;69.35;99706.19;1744478;80;21055;-59
2022/01/01 10:17:46;;;;;;;5.72;0.88;;;;;;;8.49;69.28;99710.20;1755210;80;21038;-59
2022/01/01 10:20:13;;;;;;;2.02;0.70;;;;;;;8.47;69.22;99702.95;1750709;80;21114;-59
2022/01/01 10:22:40;;;;;;;3.35;0.95;;;;;;;8.40;69.01;99704.39;1752711;80;21830;-59
2022/01/01 10:28:02;;;;;;;2.37;0.68;;;;;;;8.36;68.58;99704.64;1738687;80;21047;-60
2022/01/01 10:30:36;;;;;;;3.50;0.78;;;;;;;8.43;68.20;99705.00;1757885;80;21031;-61
2022/01/01 10:33:19;;;;;;;2.08;0.82;;;;;;;8.45;68.06;99704.88;1752931;80;21134;-61
2022/01/01 10:35:51;;;;;;;5.10;1.10;;;;;;;8.42;68.13;99705.09;1758239;80;20999;-60
2022/01/01 10:38:28;;;;;;;3.80;0.72;;;;;;;8.38;68.30;99707.13;1739835;80;21086;-61
2022/01/01 10:41:05;;;;;;;4.58;0.80;;;;;;;8.31;68.61;99702.88;1753499;80;21592;-60
2022/01/01 10:43:38;;;;;;;;;;;;;;;8.29;68.82;99714.45;1754776;80;21639;-60
2022/01/01 10:46:15;;;;;;;3.87;0.80;;;;;;;8.33;68.86;99714.06;1756875;80;20192;-60
2022/01/01 10:48:56;;;;;;;3.77;0.70;;;;;;;8.30;68.97;99704.30;1686049;82;25689;-60
2022/01/01 10:51:12;;;;;;;3.50;0.80;;;;;;;8.24;68.96;99722.68;1669459;84;21107;-61
2022/01/01 10:53:39;;;;;;;2.35;0.70;;;;;;;8.19;69.05;99713.05;1692110;84;21065;-61
2022/01/01 10:56:19;;;;;;;3.70;1.10;;;;;;;8.19;68.97;99719.60;1763578;80;21042;-60
2022/01/01 10:58:46;;;;;;;2.52;0.90;;;;;;;8.16;69.04;99719.84;1760660;80;21190;-60
2022/01/01 11:01:12;;;;;;;2.40;0.85;;;;;;;8.18;69.07;99718.75;1733301;81;21731;-60
2022/01/01 11:03:43;;;;;;;1.95;0.57;;;;;;;8.28;69.04;99720.64;1758595;79;21148;-59
2022/01/01 11:06:15;;;;;;;2.22;0.60;;;;;;;8.34;68.90;99724.91;1734130;80;21047;-59
2022/01/01 11:08:43;;;;;;;2.80;0.70;;;;;;;8.29;68.91;99720.52;1767103;80;21519;-60
2022/01/01 11:11:10;;;;;;;2.58;0.53;;;;;;;8.20;69.26;99722.56;1761830;80;21168;-60
2022/01/01 11:13:37;;;;;;;2.85;1.00;;;;;;;8.08;69.65;99716.52;1759757;79;21050;-60
2022/01/01 11:16:04;;;;;;;2.42;0.75;;;;;;;8.00;70.00;99717.61;1734867;80;21598;-60
2022/01/01 11:18:33;;;;;;;3.35;0.70;;;;;;;8.02;70.19;99718.80;1759679;80;21593;-60
2022/01/01 11:21:01;;;;;;;5.45;1.05;;;;;;;8.11;70.08;99719.38;1767108;80;21087;-59
2022/01/01 11:23:28;;;;;;;3.80;0.68;;;;;;;8.18;69.57;99725.30;1745233;80;21091;-62
2022/01/01 11:25:54;;;;;;;3.08;0.72;;;;;;;8.20;69.43;99726.48;1734026;80;21042;-60
2022/01/01 11:28:22;;;;;;;2.60;0.80;;;;;;;8.20;69.60;99722.56;1756823;80;21086;-61
2022/01/01 11:31:02;;;;;;;2.40;0.80;;;;;;;8.17;69.71;99729.38;1762314;80;21038;-62
2022/01/01 11:33:43;;;;;;;2.20;0.50;;;;;;;8.12;69.66;99731.51;1758895;80;21097;-61
2022/01/01 11:36:18;;;;;;;2.27;0.75;;;;;;;8.16;69.49;99727.70;1756818;80;21222;-62
2022/01/01 11:38:45;;;;;;;;;;;;;;;8.23;69.37;99739.35;1757234;80;21050;-60
2022/01/01 11:41:15;;;;;;;1.98;0.50;;;;;;;8.28;69.18;99738.98;1766339;80;20268;-60
2022/01/01 11:43:51;;;;;;;2.62;0.72;;;;;;;8.22;68.84;99730.30;1760059;80;21071;-60
2022/01/01 11:46:33;;;;;;;1.30;0.57;;;;;;;8.21;68.68;99728.17;1758345;80;21600;-60